createdAt,value
2023-02-19T00:01:44.787Z,70.16
2023-02-19T00:04:16.451Z,70.00
2023-02-19T00:06:43.396Z,69.88
2023-02-19T00:09:14.616Z,69.88
2023-02-19T00:11:41.697Z,69.58
2023-02-19T00:14:08.544Z,69.61
2023-02-19T00:16:36.734Z,69.45
2023-02-19T00:19:04.691Z,69.36
2023-02-19T00:21:31.434Z,69.71
2023-02-19T00:23:59.929Z,69.70
2023-02-19T00:26:26.692Z,69.34
2023-02-19T00:28:53.801Z,69.41
2023-02-19T00:31:25.214Z,69.39
2023-02-19T00:33:55.148Z,69.45
2023-02-19T00:36:21.982Z,70.03
2023-02-19T00:38:48.776Z,70.26
2023-02-19T00:41:21.927Z,70.34
2023-02-19T00:43:50.351Z,70.04
2023-02-19T00:46:21.546Z,69.81
2023-02-19T00:48:48.545Z,69.40
2023-02-19T00:51:15.232Z,69.80
2023-02-19T00:53:42.197Z,69.84
2023-02-19T00:56:09.162Z,69.62
2023-02-19T00:58:35.954Z,69.96
2023-02-19T01:01:02.697Z,69.72
2023-02-19T01:03:29.449Z,70.10
2023-02-19T01:05:56.154Z,69.94
2023-02-19T01:08:22.875Z,70.02
2023-02-19T01:10:49.572Z,69.91
2023-02-19T01:13:16.508Z,69.82
2023-02-19T01:15:43.232Z,70.30
2023-02-19T01:18:10.073Z,70.23
2023-02-19T01:20:39.766Z,70.14
2023-02-19T01:23:06.617Z,70.26
2023-02-19T01:25:33.218Z,70.25
2023-02-19T01:27:59.843Z,70.16
2023-02-19T01:30:26.585Z,70.30
2023-02-19T01:32:53.268Z,70.14
2023-02-19T01:35:20.036Z,70.07
2023-02-19T01:37:46.710Z,70.10
2023-02-19T01:40:13.335Z,69.86
2023-02-19T01:42:43.798Z,69.73
2023-02-19T01:45:30.415Z,69.66
2023-02-19T01:48:07.007Z,69.91
2023-02-19T01:50:37.164Z,69.73
2023-02-19T01:53:05.434Z,69.72
2023-02-19T01:55:32.845Z,70.09
2023-02-19T01:57:59.528Z,69.86
2023-02-19T02:00:26.530Z,70.17
2023-02-19T02:02:54.438Z,70.28
2023-02-19T02:05:33.042Z,70.37
2023-02-19T02:08:18.579Z,70.26
2023-02-19T02:10:45.358Z,71.21
2023-02-19T02:13:12.019Z,70.94
2023-02-19T02:16:10.697Z,71.39
2023-02-19T02:19:04.984Z,71.33
2023-02-19T02:22:07.850Z,71.27
2023-02-19T02:24:49.093Z,71.33
2023-02-19T02:27:15.586Z,71.45
2023-02-19T02:30:06.611Z,71.64
2023-02-19T02:32:53.488Z,71.90
2023-02-19T02:35:22.637Z,71.92
2023-02-19T02:37:49.083Z,72.14
2023-02-19T02:40:15.847Z,72.12
2023-02-19T02:42:42.934Z,72.04
2023-02-19T02:45:36.519Z,72.29
2023-02-19T02:48:16.652Z,72.47
2023-02-19T02:50:47.277Z,72.42
2023-02-19T02:53:37.019Z,72.67
2023-02-19T02:56:03.986Z,72.62
2023-02-19T02:58:30.832Z,72.71
2023-02-19T03:01:22.868Z,72.84
2023-02-19T03:03:51.511Z,72.91
2023-02-19T03:06:18.282Z,72.72
2023-02-19T03:09:07.903Z,72.71
2023-02-19T03:11:53.600Z,72.77
2023-02-19T03:14:46.355Z,72.42
2023-02-19T03:17:41.298Z,72.41
2023-02-19T03:20:10.725Z,72.29
2023-02-19T03:22:37.375Z,71.92
2023-02-19T03:25:25.901Z,71.96
2023-02-19T03:27:52.585Z,71.55
2023-02-19T03:30:21.125Z,71.27
2023-02-19T03:33:12.378Z,71.21
2023-02-19T03:35:42.227Z,71.27
2023-02-19T03:38:27.295Z,71.40
2023-02-19T03:41:12.928Z,71.78
2023-02-19T03:43:43.165Z,71.62
2023-02-19T03:46:11.833Z,71.69
2023-02-19T03:49:03.356Z,71.62
2023-02-19T03:51:39.293Z,71.87
2023-02-19T03:54:32.193Z,71.71
2023-02-19T03:57:14.940Z,71.69
2023-02-19T03:59:56.927Z,71.82
2023-02-19T04:02:30.294Z,71.77
2023-02-19T04:05:27.168Z,71.73
2023-02-19T04:07:55.154Z,71.11
2023-02-19T04:10:21.807Z,70.85
2023-02-19T04:12:50.776Z,70.51
2023-02-19T04:15:22.072Z,70.48
2023-02-19T04:17:53.613Z,70.60
2023-02-19T04:20:20.321Z,70.29
2023-02-19T04:22:46.968Z,70.02
2023-02-19T04:25:13.687Z,70.54
2023-02-19T04:27:40.522Z,70.47
2023-02-19T04:30:08.059Z,70.54
2023-02-19T04:32:34.821Z,70.40
2023-02-19T04:35:01.474Z,70.37
2023-02-19T04:37:28.112Z,70.41
2023-02-19T04:39:54.935Z,70.36
2023-02-19T04:42:21.771Z,70.57
2023-02-19T04:44:48.522Z,70.48
2023-02-19T04:47:17.831Z,70.14
2023-02-19T04:49:45.302Z,69.63
2023-02-19T04:52:11.972Z,69.29
2023-02-19T04:54:38.671Z,69.10
2023-02-19T04:57:05.529Z,69.09
2023-02-19T04:59:32.217Z,68.88
2023-02-19T05:01:58.977Z,68.65
2023-02-19T05:04:25.683Z,68.69
2023-02-19T05:06:52.407Z,68.51
2023-02-19T05:09:19.128Z,68.29
2023-02-19T05:11:45.774Z,67.71
2023-02-19T05:14:12.580Z,67.41
2023-02-19T05:16:39.306Z,66.99
2023-02-19T05:19:05.967Z,67.25
2023-02-19T05:21:32.666Z,67.51
2023-02-19T05:23:59.511Z,67.72
2023-02-19T05:26:26.764Z,67.49
2023-02-19T05:28:53.513Z,67.65
2023-02-19T05:31:20.497Z,67.97
2023-02-19T05:33:50.217Z,67.95
2023-02-19T05:36:17.275Z,68.04
2023-02-19T05:38:43.993Z,67.97
2023-02-19T05:41:15.874Z,68.48
2023-02-19T05:43:43.381Z,69.06
2023-02-19T05:46:10.709Z,69.38
2023-02-19T05:48:37.361Z,69.29
2023-02-19T05:51:12.227Z,69.19
2023-02-19T05:53:39.125Z,69.20
2023-02-19T05:56:07.086Z,69.40
2023-02-19T05:58:33.733Z,69.50
2023-02-19T06:01:00.409Z,69.36
2023-02-19T06:03:27.195Z,69.16
2023-02-19T06:05:53.953Z,68.02
2023-02-19T06:08:20.566Z,66.13
2023-02-19T06:10:47.284Z,65.19
2023-02-19T06:13:14.428Z,64.53
2023-02-19T06:15:41.748Z,63.01
2023-02-19T06:18:08.498Z,60.45
2023-02-19T06:20:35.209Z,60.08
2023-02-19T06:23:01.907Z,60.43
2023-02-19T06:25:28.641Z,58.87
2023-02-19T06:27:55.419Z,58.85
2023-02-19T06:30:22.228Z,57.60
2023-02-19T06:32:52.119Z,56.99
2023-02-19T06:35:18.979Z,55.76
2023-02-19T06:37:48.970Z,54.22
2023-02-19T06:40:16.246Z,53.23
2023-02-19T06:42:42.896Z,52.26
2023-02-19T06:45:09.648Z,51.55
2023-02-19T06:47:36.457Z,49.76
2023-02-19T06:50:03.164Z,49.07
2023-02-19T06:52:29.785Z,47.67
2023-02-19T06:54:56.518Z,47.85
2023-02-19T06:57:23.254Z,46.86
2023-02-19T06:59:49.987Z,46.43
2023-02-19T07:02:16.714Z,45.01
2023-02-19T07:04:43.378Z,45.48
2023-02-19T07:07:13.133Z,44.12
2023-02-19T07:09:39.805Z,44.42
2023-02-19T07:12:10.225Z,45.64
2023-02-19T07:14:45.368Z,45.45
2023-02-19T07:17:12.212Z,45.11
2023-02-19T07:19:38.854Z,45.21
2023-02-19T07:22:05.601Z,44.18
2023-02-19T07:24:32.353Z,43.60
2023-02-19T07:26:59.082Z,43.67
2023-02-19T07:29:25.831Z,42.48
2023-02-19T07:31:52.596Z,42.21
2023-02-19T07:34:19.309Z,40.61
2023-02-19T07:36:46.018Z,39.98
2023-02-19T07:39:13.401Z,38.21
2023-02-19T07:41:39.998Z,38.83
2023-02-19T07:44:06.718Z,39.63
2023-02-19T07:46:33.389Z,39.01
2023-02-19T07:49:00.145Z,38.52
2023-02-19T07:51:26.849Z,37.41
2023-02-19T07:53:53.555Z,37.22
2023-02-19T07:56:20.495Z,37.82
2023-02-19T07:58:47.277Z,37.03
2023-02-19T08:01:15.759Z,36.83
2023-02-19T08:03:42.500Z,35.29
2023-02-19T08:06:11.307Z,35.28
2023-02-19T08:08:41.056Z,34.07
2023-02-19T08:11:26.243Z,34.44
2023-02-19T08:13:53.350Z,33.74
2023-02-19T08:16:29.654Z,32.93
2023-02-19T08:19:03.849Z,30.79
2023-02-19T08:21:32.003Z,30.33
2023-02-19T08:23:59.656Z,30.15
2023-02-19T08:26:26.324Z,31.04
2023-02-19T08:28:52.993Z,30.88
2023-02-19T08:31:19.783Z,31.78
2023-02-19T08:33:46.510Z,29.54
2023-02-19T08:36:13.176Z,29.38
2023-02-19T08:38:39.842Z,29.80
2023-02-19T08:41:07.647Z,29.77
2023-02-19T08:43:34.456Z,30.28
2023-02-19T08:46:01.129Z,28.83
2023-02-19T08:48:29.018Z,27.27
2023-02-19T08:50:57.014Z,26.54
2023-02-19T08:53:23.989Z,26.65
2023-02-19T08:55:51.848Z,27.00
2023-02-19T08:58:18.562Z,26.99
2023-02-19T09:00:45.281Z,25.25
2023-02-19T09:03:12.016Z,25.14
2023-02-19T09:05:39.068Z,25.82
2023-02-19T09:08:05.704Z,24.94
2023-02-19T09:10:32.385Z,25.34
2023-02-19T09:12:59.061Z,25.30
2023-02-19T09:15:25.865Z,24.98
2023-02-19T09:17:52.893Z,25.39
2023-02-19T09:20:19.543Z,24.29
2023-02-19T09:22:46.405Z,24.75
2023-02-19T09:25:13.152Z,24.99
2023-02-19T09:27:39.864Z,24.88
2023-02-19T09:30:07.071Z,25.15
2023-02-19T09:32:33.893Z,26.50
2023-02-19T09:35:00.571Z,25.43
2023-02-19T09:37:27.800Z,25.45
2023-02-19T09:39:55.033Z,24.54
2023-02-19T09:42:25.920Z,25.09
2023-02-19T09:44:54.372Z,26.73
2023-02-19T09:47:23.145Z,28.22
2023-02-19T09:49:54.456Z,26.60
2023-02-19T09:52:24.112Z,25.74
2023-02-19T09:54:50.824Z,25.78
2023-02-19T09:57:19.229Z,25.20
2023-02-19T09:59:51.981Z,25.47
2023-02-19T10:02:19.404Z,25.48
2023-02-19T10:04:46.645Z,25.69
2023-02-19T10:07:22.901Z,24.88
2023-02-19T10:10:02.949Z,25.52
2023-02-19T10:12:31.214Z,25.71
2023-02-19T10:15:16.588Z,26.45
2023-02-19T10:17:43.259Z,27.36
2023-02-19T10:20:17.340Z,24.84
2023-02-19T10:22:44.115Z,25.93
2023-02-19T10:25:17.138Z,26.09
2023-02-19T10:27:43.899Z,25.34
2023-02-19T10:30:37.535Z,23.81
2023-02-19T10:33:14.652Z,25.71
2023-02-19T10:35:57.822Z,27.44
2023-02-19T10:38:28.441Z,25.26
2023-02-19T10:40:59.492Z,25.63
2023-02-19T10:43:33.027Z,25.70
2023-02-19T10:46:31.785Z,26.16
2023-02-19T10:48:59.628Z,25.23
2023-02-19T10:51:34.833Z,28.56
2023-02-19T10:54:16.308Z,26.21
2023-02-19T10:56:43.187Z,25.19
2023-02-19T10:59:35.714Z,24.97
2023-02-19T11:02:03.461Z,25.66
2023-02-19T11:04:34.242Z,24.77
2023-02-19T11:07:19.471Z,24.95
2023-02-19T11:09:47.348Z,26.02
2023-02-19T11:12:14.566Z,26.78
2023-02-19T11:14:44.545Z,25.50
2023-02-19T11:17:25.543Z,26.08
2023-02-19T11:20:00.228Z,26.31
2023-02-19T11:22:37.834Z,26.21
2023-02-19T11:25:10.592Z,26.18
2023-02-19T11:27:37.408Z,25.00
2023-02-19T11:30:24.506Z,26.58
2023-02-19T11:32:51.134Z,24.98
2023-02-19T11:35:23.017Z,25.77
2023-02-19T11:37:54.256Z,22.81
2023-02-19T11:40:22.528Z,23.94
2023-02-19T11:43:00.640Z,23.80
2023-02-19T11:45:43.708Z,25.02
2023-02-19T11:48:26.210Z,24.66
2023-02-19T11:50:57.038Z,24.91
2023-02-19T11:53:32.290Z,25.87
2023-02-19T11:56:33.801Z,25.70
2023-02-19T11:59:05.410Z,27.60
2023-02-19T12:01:54.327Z,26.34
2023-02-19T12:04:50.328Z,26.39
2023-02-19T12:07:30.148Z,27.41
2023-02-19T12:10:34.694Z,26.71
2023-02-19T12:13:04.731Z,27.11
2023-02-19T12:18:36.736Z,28.29
2023-02-19T12:21:12.788Z,26.82
2023-02-19T12:24:12.518Z,27.58
2023-02-19T12:26:48.243Z,27.14
2023-02-19T12:29:47.504Z,27.06
2023-02-19T12:32:23.317Z,25.95
2023-02-19T12:35:31.179Z,28.50
2023-02-19T12:38:27.486Z,27.15
2023-02-19T12:41:10.493Z,26.78
2023-02-19T12:43:38.035Z,27.53
2023-02-19T12:46:15.580Z,27.55
2023-02-19T12:49:36.901Z,27.86
2023-02-19T12:52:08.583Z,27.18
2023-02-19T12:54:38.418Z,27.41
2023-02-19T12:57:17.560Z,26.99
2023-02-19T12:59:52.601Z,27.74
2023-02-19T13:02:20.835Z,26.77
2023-02-19T13:05:01.363Z,27.16
2023-02-19T13:07:40.237Z,25.74
2023-02-19T13:10:39.433Z,25.82
2023-02-19T13:13:07.999Z,27.41
2023-02-19T13:15:37.169Z,26.46
2023-02-19T13:18:05.028Z,26.40
2023-02-19T13:20:35.364Z,26.66
2023-02-19T13:23:26.739Z,25.75
2023-02-19T13:26:11.944Z,26.15
2023-02-19T13:28:59.648Z,25.04
2023-02-19T13:31:50.833Z,26.17
2023-02-19T13:34:26.453Z,25.27
2023-02-19T13:36:53.755Z,25.76
2023-02-19T13:39:20.782Z,26.68
2023-02-19T13:41:54.745Z,25.69
2023-02-19T13:44:23.342Z,26.46
2023-02-19T13:46:50.175Z,26.54
2023-02-19T13:49:29.115Z,26.41
2023-02-19T13:51:56.717Z,25.84
2023-02-19T13:54:24.450Z,26.24
2023-02-19T13:56:54.560Z,27.07
2023-02-19T13:59:37.575Z,25.70
2023-02-19T14:02:04.323Z,25.70
2023-02-19T14:04:43.174Z,25.94
2023-02-19T14:07:09.840Z,25.91
2023-02-19T14:09:40.181Z,27.22
2023-02-19T14:12:15.058Z,28.07
2023-02-19T14:14:42.879Z,28.16
2023-02-19T14:17:09.492Z,27.96
2023-02-19T14:19:42.430Z,27.49
2023-02-19T14:22:52.921Z,27.66
2023-02-19T14:25:31.937Z,26.91
2023-02-19T14:28:10.634Z,26.28
2023-02-19T14:31:01.952Z,25.60
2023-02-19T14:33:40.150Z,24.50
2023-02-19T14:36:25.763Z,25.48
2023-02-19T14:38:55.240Z,25.80
2023-02-19T14:41:23.516Z,26.48
2023-02-19T14:43:51.801Z,27.69
2023-02-19T14:46:49.211Z,28.88
2023-02-19T14:49:18.709Z,29.46
2023-02-19T14:51:47.477Z,29.64
2023-02-19T14:54:26.455Z,30.96
2023-02-19T14:56:53.285Z,31.42
2023-02-19T14:59:20.293Z,31.77
2023-02-19T15:01:47.047Z,32.22
2023-02-19T15:04:28.196Z,32.75
2023-02-19T15:06:56.750Z,33.20
2023-02-19T15:09:27.750Z,33.49
2023-02-19T15:11:54.383Z,33.72
2023-02-19T15:14:22.596Z,34.30
2023-02-19T15:16:49.254Z,34.92
2023-02-19T15:19:16.242Z,35.17
2023-02-19T15:21:47.206Z,35.27
2023-02-19T15:24:15.602Z,35.43
2023-02-19T15:26:43.397Z,35.96
2023-02-19T15:29:11.405Z,35.97
2023-02-19T15:31:48.099Z,36.26
2023-02-19T15:34:26.132Z,37.13
2023-02-19T15:37:04.142Z,36.99
2023-02-19T15:39:36.124Z,37.25
2023-02-19T15:42:03.629Z,37.97
2023-02-19T15:44:38.551Z,38.33
2023-02-19T15:47:29.792Z,38.13
2023-02-19T15:50:00.617Z,38.54
2023-02-19T15:52:38.859Z,38.81
2023-02-19T15:55:17.778Z,39.02
2023-02-19T15:57:47.270Z,38.89
2023-02-19T16:00:20.048Z,38.78
2023-02-19T16:02:46.816Z,38.78
2023-02-19T16:05:16.015Z,39.73
2023-02-19T16:07:43.775Z,40.69
2023-02-19T16:10:22.001Z,40.08
2023-02-19T16:12:58.777Z,40.56
2023-02-19T16:15:26.576Z,40.85
2023-02-19T16:17:53.304Z,41.74
2023-02-19T16:20:31.149Z,41.32
2023-02-19T16:23:03.580Z,41.56
2023-02-19T16:25:38.968Z,42.02
2023-02-19T16:28:24.044Z,42.19
2023-02-19T16:31:00.030Z,42.22
2023-02-19T16:33:36.302Z,43.09
2023-02-19T16:36:37.936Z,43.06
2023-02-19T16:39:07.573Z,43.57
2023-02-19T16:42:14.786Z,44.19
2023-02-19T16:44:41.576Z,45.09
2023-02-19T16:47:15.401Z,45.12
2023-02-19T16:49:42.643Z,45.56
2023-02-19T16:52:14.672Z,45.77
2023-02-19T16:54:41.364Z,45.80
2023-02-19T16:57:07.996Z,46.16
2023-02-19T16:59:34.631Z,46.32
2023-02-19T17:02:04.112Z,46.91
2023-02-19T17:04:30.720Z,46.78
2023-02-19T17:06:57.402Z,47.05
2023-02-19T17:09:24.103Z,47.32
2023-02-19T17:11:50.808Z,47.94
2023-02-19T17:14:17.564Z,48.02
2023-02-19T17:16:44.246Z,48.11
2023-02-19T17:19:18.306Z,48.59
2023-02-19T17:21:45.316Z,49.22
2023-02-19T17:24:12.043Z,49.46
2023-02-19T17:26:38.668Z,49.40
2023-02-19T17:29:06.369Z,49.69
2023-02-19T17:31:34.029Z,50.14
2023-02-19T17:34:00.969Z,50.46
2023-02-19T17:36:30.733Z,50.83
2023-02-19T17:39:00.815Z,50.52
2023-02-19T17:41:27.943Z,50.26
2023-02-19T17:43:54.699Z,50.08
2023-02-19T17:46:23.543Z,50.27
2023-02-19T17:48:50.491Z,50.84
2023-02-19T17:51:17.104Z,50.57
2023-02-19T17:53:43.942Z,50.85
2023-02-19T17:56:11.697Z,51.12
2023-02-19T17:58:38.342Z,51.06
2023-02-19T18:01:05.122Z,51.66
2023-02-19T18:03:31.846Z,51.89
2023-02-19T18:05:58.605Z,51.69
2023-02-19T18:08:25.230Z,52.22
2023-02-19T18:10:52.728Z,52.54
2023-02-19T18:13:19.419Z,52.59
2023-02-19T18:15:46.008Z,52.87
2023-02-19T18:18:12.671Z,53.10
2023-02-19T18:20:39.511Z,53.03
2023-02-19T18:23:06.146Z,53.31
2023-02-19T18:25:32.860Z,53.46
2023-02-19T18:27:59.584Z,53.01
2023-02-19T18:30:26.305Z,53.48
2023-02-19T18:32:53.018Z,53.65
2023-02-19T18:35:19.866Z,53.77
2023-02-19T18:37:52.739Z,53.63
2023-02-19T18:40:22.732Z,53.74
2023-02-19T18:42:49.353Z,54.41
2023-02-19T18:45:16.771Z,53.37
2023-02-19T18:47:46.666Z,54.38
2023-02-19T18:50:13.300Z,54.01
2023-02-19T18:52:39.906Z,54.45
2023-02-19T18:55:07.083Z,55.70
2023-02-19T18:57:33.749Z,55.22
2023-02-19T19:00:00.345Z,55.96
2023-02-19T19:02:29.729Z,55.78
2023-02-19T19:04:58.321Z,54.73
2023-02-19T19:07:24.974Z,54.74
2023-02-19T19:09:51.781Z,54.50
2023-02-19T19:12:18.458Z,54.79
2023-02-19T19:14:45.130Z,55.19
2023-02-19T19:17:11.780Z,55.03
2023-02-19T19:19:38.480Z,56.06
2023-02-19T19:22:05.128Z,55.91
2023-02-19T19:24:31.833Z,55.61
2023-02-19T19:26:58.537Z,56.16
2023-02-19T19:29:25.474Z,56.15
2023-02-19T19:31:52.358Z,56.33
2023-02-19T19:34:19.134Z,56.59
2023-02-19T19:36:45.988Z,57.27
2023-02-19T19:39:13.049Z,57.21
2023-02-19T19:41:39.760Z,57.57
2023-02-19T19:44:06.737Z,57.35
2023-02-19T19:46:33.607Z,58.10
2023-02-19T19:49:00.394Z,58.09
2023-02-19T19:51:33.740Z,57.66
2023-02-19T19:54:01.148Z,57.56
2023-02-19T19:56:27.845Z,56.68
2023-02-19T19:58:54.526Z,57.43
2023-02-19T20:01:23.035Z,57.65
2023-02-19T20:03:51.081Z,57.62
2023-02-19T20:06:27.964Z,57.96
2023-02-19T20:08:54.789Z,58.32
2023-02-19T20:11:21.508Z,58.70
2023-02-19T20:13:48.109Z,59.03
2023-02-19T20:16:14.872Z,59.56
2023-02-19T20:18:41.693Z,59.11
2023-02-19T20:21:09.372Z,59.60
2023-02-19T20:23:37.618Z,59.92
2023-02-19T20:26:05.483Z,59.79
2023-02-19T20:28:32.594Z,60.16
2023-02-19T20:30:59.286Z,60.04
2023-02-19T20:33:25.971Z,59.69
2023-02-19T20:35:52.791Z,59.73
2023-02-19T20:38:19.413Z,60.16
2023-02-19T20:40:46.224Z,60.25
2023-02-19T20:43:12.964Z,59.87
2023-02-19T20:45:41.070Z,59.13
2023-02-19T20:48:07.740Z,59.16
2023-02-19T20:50:34.472Z,59.33
2023-02-19T20:53:01.243Z,59.09
2023-02-19T20:55:28.780Z,57.77
2023-02-19T20:57:55.467Z,58.60
2023-02-19T21:00:22.317Z,58.89
2023-02-19T21:02:49.082Z,58.82
2023-02-19T21:05:17.511Z,58.96
2023-02-19T21:07:44.248Z,59.10
2023-02-19T21:10:10.942Z,59.37
2023-02-19T21:12:37.708Z,59.67
2023-02-19T21:15:04.896Z,59.53
2023-02-19T21:17:31.976Z,59.24
2023-02-19T21:19:58.636Z,59.92
2023-02-19T21:22:25.405Z,60.04
2023-02-19T21:24:53.135Z,60.24
2023-02-19T21:27:20.356Z,60.48
2023-02-19T21:29:47.342Z,60.80
2023-02-19T21:32:14.160Z,60.98
2023-02-19T21:34:40.916Z,61.19
2023-02-19T21:37:07.548Z,61.13
2023-02-19T21:39:34.735Z,61.28
2023-02-19T21:42:02.563Z,61.34
2023-02-19T21:44:29.276Z,61.63
2023-02-19T21:46:56.159Z,61.49
2023-02-19T21:49:22.829Z,61.79
2023-02-19T21:51:50.388Z,61.74
2023-02-19T21:54:19.074Z,61.89
2023-02-19T21:56:45.816Z,61.87
2023-02-19T21:59:12.584Z,61.94
2023-02-19T22:01:39.386Z,62.11
2023-02-19T22:04:06.886Z,61.76
2023-02-19T22:06:33.656Z,62.26
2023-02-19T22:09:00.430Z,62.20
2023-02-19T22:11:27.147Z,62.33
2023-02-19T22:13:53.791Z,62.77
2023-02-19T22:16:20.509Z,63.27
2023-02-19T22:18:55.067Z,63.63
2023-02-19T22:21:22.498Z,64.16
2023-02-19T22:23:49.897Z,64.34
2023-02-19T22:26:20.414Z,64.52
2023-02-19T22:28:47.900Z,64.68
2023-02-19T22:31:16.090Z,65.06
2023-02-19T22:33:42.993Z,65.19
2023-02-19T22:36:21.400Z,65.29
2023-02-19T22:38:48.290Z,65.47
2023-02-19T22:41:15.414Z,65.82
2023-02-19T22:43:42.055Z,65.66
2023-02-19T22:46:34.904Z,65.61
2023-02-19T22:49:03.025Z,65.63
2023-02-19T22:51:30.116Z,65.76
2023-02-19T22:53:57.591Z,65.91
2023-02-19T22:56:25.648Z,66.13
2023-02-19T22:58:52.894Z,66.35
2023-02-19T23:01:19.817Z,65.97
2023-02-19T23:03:55.595Z,65.75
2023-02-19T23:06:27.349Z,65.69
2023-02-19T23:08:55.146Z,65.32
2023-02-19T23:11:25.940Z,65.56
2023-02-19T23:13:52.591Z,64.86
2023-02-19T23:16:19.271Z,64.68
2023-02-19T23:18:45.953Z,63.95
2023-02-19T23:21:12.966Z,64.02
2023-02-19T23:23:43.123Z,63.80
2023-02-19T23:26:10.307Z,63.80
2023-02-19T23:28:38.682Z,63.89
2023-02-19T23:31:05.656Z,63.59
2023-02-19T23:33:32.404Z,64.07
2023-02-19T23:35:59.074Z,63.70
2023-02-19T23:38:25.707Z,64.05
2023-02-19T23:40:52.333Z,64.18
2023-02-19T23:43:19.099Z,64.27
2023-02-19T23:45:45.793Z,64.10
2023-02-19T23:48:12.489Z,64.36
2023-02-19T23:50:39.174Z,64.30
2023-02-19T23:53:05.887Z,64.50
2023-02-19T23:55:32.505Z,64.60
2023-02-19T23:57:59.151Z,64.34
